sensor_id;sensor_type;location;lat;lon;timestamp;temperature;humidity
36186;DHT22;22228;53.222;7.446;2023-05-07T00:02:16;10.80;99.90
36186;DHT22;22228;53.222;7.446;2023-05-07T00:04:37;10.80;99.90
36186;DHT22;22228;53.222;7.446;2023-05-07T00:06:58;10.80;99.90
36186;DHT22;22228;53.222;7.446;2023-05-07T00:09:22;10.80;99.90
36186;DHT22;22228;53.222;7.446;2023-05-07T00:11:42;10.90;99.90
36186;DHT22;22228;53.222;7.446;2023-05-07T00:14:04;10.90;99.90
36186;DHT22;22228;53.222;7.446;2023-05-07T03:01:46;10.30;99.90
36186;DHT22;22228;53.222;7.446;2023-05-07T03:04:33;10.30;99.90
36186;DHT22;22228;53.222;7.446;2023-05-07T03:06:57;10.20;99.90
36186;DHT22;22228;53.222;7.446;2023-05-07T03:09:25;10.20;99.90
36186;DHT22;22228;53.222;7.446;2023-05-07T03:11:45;10.20;99.90
36186;DHT22;22228;53.222;7.446;2023-05-07T03:14:06;10.10;99.90
36186;DHT22;22228;53.222;7.446;2023-05-07T03:17:14;10.10;99.90
36186;DHT22;22228;53.222;7.446;2023-05-07T03:20:03;10.00;99.90
36186;DHT22;22228;53.222;7.446;2023-05-07T03:22:29;10.00;99.90
36186;DHT22;22228;53.222;7.446;2023-05-07T03:24:53;10.00;99.90
36186;DHT22;22228;53.222;7.446;2023-05-07T03:27:42;10.00;99.90
36186;DHT22;22228;53.222;7.446;2023-05-07T03:30:04;10.00;99.90
36186;DHT22;22228;53.222;7.446;2023-05-07T03:32:27;10.00;99.90
36186;DHT22;22228;53.222;7.446;2023-05-07T03:34:49;9.90;99.90
36186;DHT22;22228;53.222;7.446;2023-05-07T03:37:11;10.00;99.90
36186;DHT22;22228;53.222;7.446;2023-05-07T03:39:31;10.00;99.90
36186;DHT22;22228;53.222;7.446;2023-05-07T03:41:52;10.00;99.90
36186;DHT22;22228;53.222;7.446;2023-05-07T03:44:14;10.00;99.90
36186;DHT22;22228;53.222;7.446;2023-05-07T03:46:35;9.90;99.90
36186;DHT22;22228;53.222;7.446;2023-05-07T03:49:12;10.00;99.90
36186;DHT22;22228;53.222;7.446;2023-05-07T03:51:43;9.90;99.90
36186;DHT22;22228;53.222;7.446;2023-05-07T03:54:08;9.90;99.90
36186;DHT22;22228;53.222;7.446;2023-05-07T03:56:28;9.90;99.90
36186;DHT22;22228;53.222;7.446;2023-05-07T03:59:22;9.90;99.90
36186;DHT22;22228;53.222;7.446;2023-05-07T04:01:43;9.90;99.90
36186;DHT22;22228;53.222;7.446;2023-05-07T04:04:11;9.90;99.90
36186;DHT22;22228;53.222;7.446;2023-05-07T04:06:31;9.90;99.90
36186;DHT22;22228;53.222;7.446;2023-05-07T04:08:53;9.90;99.90
36186;DHT22;22228;53.222;7.446;2023-05-07T04:11:15;9.90;99.90
36186;DHT22;22228;53.222;7.446;2023-05-07T04:13:36;9.90;99.90
36186;DHT22;22228;53.222;7.446;2023-05-07T04:16:21;9.90;99.90
36186;DHT22;22228;53.222;7.446;2023-05-07T04:18:44;9.90;99.90
36186;DHT22;22228;53.222;7.446;2023-05-07T04:21:37;9.80;99.90
36186;DHT22;22228;53.222;7.446;2023-05-07T04:23:59;9.80;99.90
36186;DHT22;22228;53.222;7.446;2023-05-07T04:26:46;9.80;99.90
36186;DHT22;22228;53.222;7.446;2023-05-07T04:29:08;9.80;99.90
36186;DHT22;22228;53.222;7.446;2023-05-07T04:31:29;9.80;99.90
36186;DHT22;22228;53.222;7.446;2023-05-07T04:33:55;9.80;99.90
36186;DHT22;22228;53.222;7.446;2023-05-07T04:36:44;9.80;99.90
36186;DHT22;22228;53.222;7.446;2023-05-07T04:39:06;9.70;99.90
36186;DHT22;22228;53.222;7.446;2023-05-07T04:41:33;9.70;99.90
36186;DHT22;22228;53.222;7.446;2023-05-07T04:43:55;9.70;99.90
36186;DHT22;22228;53.222;7.446;2023-05-07T04:46:18;9.70;99.90
36186;DHT22;22228;53.222;7.446;2023-05-07T04:48:42;9.70;99.90
36186;DHT22;22228;53.222;7.446;2023-05-07T04:51:02;9.70;99.90
36186;DHT22;22228;53.222;7.446;2023-05-07T04:53:25;9.70;99.90
36186;DHT22;22228;53.222;7.446;2023-05-07T04:55:49;9.70;99.90
36186;DHT22;22228;53.222;7.446;2023-05-07T04:58:16;9.70;99.90
36186;DHT22;22228;53.222;7.446;2023-05-07T05:00:41;9.70;99.90
36186;DHT22;22228;53.222;7.446;2023-05-07T05:03:28;9.70;99.90
36186;DHT22;22228;53.222;7.446;2023-05-07T05:05:51;9.70;99.90
36186;DHT22;22228;53.222;7.446;2023-05-07T05:08:12;9.80;99.90
36186;DHT22;22228;53.222;7.446;2023-05-07T05:10:43;9.80;99.90
36186;DHT22;22228;53.222;7.446;2023-05-07T05:13:31;9.80;99.90
36186;DHT22;22228;53.222;7.446;2023-05-07T05:15:58;9.80;99.90
36186;DHT22;22228;53.222;7.446;2023-05-07T05:18:23;9.80;99.90
36186;DHT22;22228;53.222;7.446;2023-05-07T05:20:47;9.80;99.90
36186;DHT22;22228;53.222;7.446;2023-05-07T05:23:08;9.80;99.90
36186;DHT22;22228;53.222;7.446;2023-05-07T05:25:30;9.80;99.90
36186;DHT22;22228;53.222;7.446;2023-05-07T05:31:10;9.80;99.90
36186;DHT22;22228;53.222;7.446;2023-05-07T05:33:31;9.80;99.90
36186;DHT22;22228;53.222;7.446;2023-05-07T05:35:57;9.80;99.90
36186;DHT22;22228;53.222;7.446;2023-05-07T05:38:21;9.90;99.90
36186;DHT22;22228;53.222;7.446;2023-05-07T05:40:41;9.90;99.90
36186;DHT22;22228;53.222;7.446;2023-05-07T05:43:05;9.90;99.90
36186;DHT22;22228;53.222;7.446;2023-05-07T05:45:29;9.90;99.90
36186;DHT22;22228;53.222;7.446;2023-05-07T05:47:52;9.90;99.90
36186;DHT22;22228;53.222;7.446;2023-05-07T05:50:13;9.90;99.90
36186;DHT22;22228;53.222;7.446;2023-05-07T05:52:38;10.00;99.90
36186;DHT22;22228;53.222;7.446;2023-05-07T05:55:01;10.00;99.90
36186;DHT22;22228;53.222;7.446;2023-05-07T05:57:22;10.00;99.90
36186;DHT22;22228;53.222;7.446;2023-05-07T05:59:43;10.00;99.90
36186;DHT22;22228;53.222;7.446;2023-05-07T06:02:08;10.00;99.90
36186;DHT22;22228;53.222;7.446;2023-05-07T06:04:38;10.00;99.90
36186;DHT22;22228;53.222;7.446;2023-05-07T06:07:02;10.00;99.90
36186;DHT22;22228;53.222;7.446;2023-05-07T06:09:24;10.10;99.90
36186;DHT22;22228;53.222;7.446;2023-05-07T06:12:09;10.10;99.90
36186;DHT22;22228;53.222;7.446;2023-05-07T06:14:42;10.10;99.90
36186;DHT22;22228;53.222;7.446;2023-05-07T06:17:04;10.10;99.90
36186;DHT22;22228;53.222;7.446;2023-05-07T06:19:26;10.10;99.90
36186;DHT22;22228;53.222;7.446;2023-05-07T06:25:16;10.20;99.90
36186;DHT22;22228;53.222;7.446;2023-05-07T06:27:37;10.20;99.90
36186;DHT22;22228;53.222;7.446;2023-05-07T06:29:59;10.30;99.90
36186;DHT22;22228;53.222;7.446;2023-05-07T06:32:24;10.30;99.90
36186;DHT22;22228;53.222;7.446;2023-05-07T06:34:45;10.30;99.90
36186;DHT22;22228;53.222;7.446;2023-05-07T06:37:12;10.30;99.90
36186;DHT22;22228;53.222;7.446;2023-05-07T06:39:46;10.30;99.90
36186;DHT22;22228;53.222;7.446;2023-05-07T06:42:35;10.30;99.90
36186;DHT22;22228;53.222;7.446;2023-05-07T06:45:17;10.40;99.90
36186;DHT22;22228;53.222;7.446;2023-05-07T06:47:40;10.50;99.90
36186;DHT22;22228;53.222;7.446;2023-05-07T06:50:00;10.50;99.90
36186;DHT22;22228;53.222;7.446;2023-05-07T06:52:25;10.50;99.90
36186;DHT22;22228;53.222;7.446;2023-05-07T06:54:53;10.50;99.90
36186;DHT22;22228;53.222;7.446;2023-05-07T06:57:15;10.50;99.90
36186;DHT22;22228;53.222;7.446;2023-05-07T06:59:37;10.50;99.90
36186;DHT22;22228;53.222;7.446;2023-05-07T07:01:59;10.60;99.90
36186;DHT22;22228;53.222;7.446;2023-05-07T07:04:19;10.60;99.90
36186;DHT22;22228;53.222;7.446;2023-05-07T07:06:47;10.70;99.90
36186;DHT22;22228;53.222;7.446;2023-05-07T07:09:10;10.70;99.90
36186;DHT22;22228;53.222;7.446;2023-05-07T07:11:31;10.70;99.90
36186;DHT22;22228;53.222;7.446;2023-05-07T07:13:54;10.80;99.90
36186;DHT22;22228;53.222;7.446;2023-05-07T07:16:19;10.80;99.90
36186;DHT22;22228;53.222;7.446;2023-05-07T07:18:40;10.80;99.90
36186;DHT22;22228;53.222;7.446;2023-05-07T07:21:01;10.80;99.90
36186;DHT22;22228;53.222;7.446;2023-05-07T07:23:23;10.90;99.90
36186;DHT22;22228;53.222;7.446;2023-05-07T07:25:45;10.90;99.90
36186;DHT22;22228;53.222;7.446;2023-05-07T07:28:07;11.00;99.90
36186;DHT22;22228;53.222;7.446;2023-05-07T07:30:37;11.00;99.90
36186;DHT22;22228;53.222;7.446;2023-05-07T07:33:01;11.10;99.90
36186;DHT22;22228;53.222;7.446;2023-05-07T07:35:26;11.20;99.90
36186;DHT22;22228;53.222;7.446;2023-05-07T07:37:50;11.30;99.90
36186;DHT22;22228;53.222;7.446;2023-05-07T07:40:12;11.30;99.90
36186;DHT22;22228;53.222;7.446;2023-05-07T07:42:35;11.30;99.90
36186;DHT22;22228;53.222;7.446;2023-05-07T07:44:55;11.30;99.90
36186;DHT22;22228;53.222;7.446;2023-05-07T07:47:42;11.30;99.90
36186;DHT22;22228;53.222;7.446;2023-05-07T07:50:07;11.40;99.90
36186;DHT22;22228;53.222;7.446;2023-05-07T07:52:32;11.40;99.90
36186;DHT22;22228;53.222;7.446;2023-05-07T07:54:58;11.60;99.90
36186;DHT22;22228;53.222;7.446;2023-05-07T07:57:44;11.60;99.90
36186;DHT22;22228;53.222;7.446;2023-05-07T08:00:14;11.70;99.90
36186;DHT22;22228;53.222;7.446;2023-05-07T08:03:00;11.70;99.90
36186;DHT22;22228;53.222;7.446;2023-05-07T08:05:29;11.70;99.90
36186;DHT22;22228;53.222;7.446;2023-05-07T08:07:51;11.80;99.90
36186;DHT22;22228;53.222;7.446;2023-05-07T08:10:21;11.80;99.90
36186;DHT22;22228;53.222;7.446;2023-05-07T08:12:51;12.00;99.90
36186;DHT22;22228;53.222;7.446;2023-05-07T08:15:12;12.10;99.90
36186;DHT22;22228;53.222;7.446;2023-05-07T08:17:33;12.10;99.90
36186;DHT22;22228;53.222;7.446;2023-05-07T08:20:20;12.20;99.90
36186;DHT22;22228;53.222;7.446;2023-05-07T08:22:42;12.20;99.90
36186;DHT22;22228;53.222;7.446;2023-05-07T08:25:32;12.20;99.90
36186;DHT22;22228;53.222;7.446;2023-05-07T08:28:18;12.20;99.90
36186;DHT22;22228;53.222;7.446;2023-05-07T08:30:41;12.30;99.90
36186;DHT22;22228;53.222;7.446;2023-05-07T08:33:31;12.30;99.90
36186;DHT22;22228;53.222;7.446;2023-05-07T08:35:59;12.40;99.90
36186;DHT22;22228;53.222;7.446;2023-05-07T08:38:21;12.40;99.90
36186;DHT22;22228;53.222;7.446;2023-05-07T08:41:10;12.50;99.90
36186;DHT22;22228;53.222;7.446;2023-05-07T08:43:33;12.60;99.90
36186;DHT22;22228;53.222;7.446;2023-05-07T08:46:00;12.70;99.90
36186;DHT22;22228;53.222;7.446;2023-05-07T08:48:25;12.70;99.90
36186;DHT22;22228;53.222;7.446;2023-05-07T08:50:57;12.70;99.90
36186;DHT22;22228;53.222;7.446;2023-05-07T08:53:27;12.80;99.90
36186;DHT22;22228;53.222;7.446;2023-05-07T08:55:49;12.90;99.90
36186;DHT22;22228;53.222;7.446;2023-05-07T08:58:10;12.90;99.90
36186;DHT22;22228;53.222;7.446;2023-05-07T09:00:40;12.90;99.90
36186;DHT22;22228;53.222;7.446;2023-05-07T09:03:01;12.80;99.90
36186;DHT22;22228;53.222;7.446;2023-05-07T09:05:24;12.90;99.90
36186;DHT22;22228;53.222;7.446;2023-05-07T09:08:14;13.10;99.90
36186;DHT22;22228;53.222;7.446;2023-05-07T09:11:10;13.00;99.90
36186;DHT22;22228;53.222;7.446;2023-05-07T09:13:32;13.10;99.90
36186;DHT22;22228;53.222;7.446;2023-05-07T09:15:55;13.20;99.90
36186;DHT22;22228;53.222;7.446;2023-05-07T09:18:42;13.30;99.90
36186;DHT22;22228;53.222;7.446;2023-05-07T09:21:04;13.50;99.90
36186;DHT22;22228;53.222;7.446;2023-05-07T09:23:55;13.60;99.90
36186;DHT22;22228;53.222;7.446;2023-05-07T09:26:30;13.90;99.90
36186;DHT22;22228;53.222;7.446;2023-05-07T09:28:52;14.00;99.90
36186;DHT22;22228;53.222;7.446;2023-05-07T09:31:17;14.20;99.90
36186;DHT22;22228;53.222;7.446;2023-05-07T09:33:40;14.30;99.90
36186;DHT22;22228;53.222;7.446;2023-05-07T09:36:27;14.40;99.90
36186;DHT22;22228;53.222;7.446;2023-05-07T09:38:52;14.50;99.90
36186;DHT22;22228;53.222;7.446;2023-05-07T09:41:14;14.60;99.90
36186;DHT22;22228;53.222;7.446;2023-05-07T09:43:43;14.60;98.50
36186;DHT22;22228;53.222;7.446;2023-05-07T09:46:34;14.70;99.90
36186;DHT22;22228;53.222;7.446;2023-05-07T09:49:02;14.80;99.90
36186;DHT22;22228;53.222;7.446;2023-05-07T09:51:29;14.70;99.90
36186;DHT22;22228;53.222;7.446;2023-05-07T09:53:53;14.80;99.90
36186;DHT22;22228;53.222;7.446;2023-05-07T09:56:16;14.90;98.30
36186;DHT22;22228;53.222;7.446;2023-05-07T09:58:45;15.00;91.30
36186;DHT22;22228;53.222;7.446;2023-05-07T10:01:06;15.10;92.70
36186;DHT22;22228;53.222;7.446;2023-05-07T10:03:53;15.20;63.50
36186;DHT22;22228;53.222;7.446;2023-05-07T10:06:16;15.50;59.80
36186;DHT22;22228;53.222;7.446;2023-05-07T10:08:37;15.60;61.60
36186;DHT22;22228;53.222;7.446;2023-05-07T10:11:01;15.80;49.00
36186;DHT22;22228;53.222;7.446;2023-05-07T10:13:23;15.80;9.70
36186;DHT22;22228;53.222;7.446;2023-05-07T10:15:53;15.90;9.00
36186;DHT22;22228;53.222;7.446;2023-05-07T10:18:23;16.00;14.30
36186;DHT22;22228;53.222;7.446;2023-05-07T10:20:52;16.10;1.00
36186;DHT22;22228;53.222;7.446;2023-05-07T10:23:18;16.10;1.00
36186;DHT22;22228;53.222;7.446;2023-05-07T10:25:41;16.10;13.70
36186;DHT22;22228;53.222;7.446;2023-05-07T10:28:29;16.10;1.00
36186;DHT22;22228;53.222;7.446;2023-05-07T10:31:03;16.00;12.00
36186;DHT22;22228;53.222;7.446;2023-05-07T10:33:33;15.80;99.90
36186;DHT22;22228;53.222;7.446;2023-05-07T10:35:58;15.90;99.90
36186;DHT22;22228;53.222;7.446;2023-05-07T10:38:34;16.10;35.40
36186;DHT22;22228;53.222;7.446;2023-05-07T10:40:55;16.10;1.00
36186;DHT22;22228;53.222;7.446;2023-05-07T10:43:17;16.10;99.90
36186;DHT22;22228;53.222;7.446;2023-05-07T10:46:14;15.90;99.90
36186;DHT22;22228;53.222;7.446;2023-05-07T10:49:13;15.90;1.00
36186;DHT22;22228;53.222;7.446;2023-05-07T10:51:39;16.00;1.00
36186;DHT22;22228;53.222;7.446;2023-05-07T10:54:22;16.00;1.00
36186;DHT22;22228;53.222;7.446;2023-05-07T10:56:55;15.90;3.80
36186;DHT22;22228;53.222;7.446;2023-05-07T10:59:31;15.90;21.50
36186;DHT22;22228;53.222;7.446;2023-05-07T11:02:07;16.10;24.70
36186;DHT22;22228;53.222;7.446;2023-05-07T11:04:39;16.50;7.10
36186;DHT22;22228;53.222;7.446;2023-05-07T11:07:28;17.10;5.80
36186;DHT22;22228;53.222;7.446;2023-05-07T11:10:02;17.60;1.00
36186;DHT22;22228;53.222;7.446;2023-05-07T11:12:50;17.70;1.00
36186;DHT22;22228;53.222;7.446;2023-05-07T11:15:34;17.40;1.00
36186;DHT22;22228;53.222;7.446;2023-05-07T11:18:00;17.40;1.00
36186;DHT22;22228;53.222;7.446;2023-05-07T11:20:49;17.70;1.00
36186;DHT22;22228;53.222;7.446;2023-05-07T11:26:47;18.40;1.00
36186;DHT22;22228;53.222;7.446;2023-05-07T11:29:18;18.80;1.00
36186;DHT22;22228;53.222;7.446;2023-05-07T11:31:39;19.50;1.00
36186;DHT22;22228;53.222;7.446;2023-05-07T11:34:09;19.30;1.00
36186;DHT22;22228;53.222;7.446;2023-05-07T11:36:55;19.20;1.00
36186;DHT22;22228;53.222;7.446;2023-05-07T11:39:35;19.60;1.00
36186;DHT22;22228;53.222;7.446;2023-05-07T11:41:56;19.30;1.00
36186;DHT22;22228;53.222;7.446;2023-05-07T11:44:17;19.00;1.00
36186;DHT22;22228;53.222;7.446;2023-05-07T11:47:10;18.80;1.00
36186;DHT22;22228;53.222;7.446;2023-05-07T11:52:51;19.50;1.00
36186;DHT22;22228;53.222;7.446;2023-05-07T11:55:18;20.20;1.00
36186;DHT22;22228;53.222;7.446;2023-05-07T11:58:02;21.00;99.90
36186;DHT22;22228;53.222;7.446;2023-05-07T12:00:28;21.40;99.90
36186;DHT22;22228;53.222;7.446;2023-05-07T12:02:49;22.10;99.90
36186;DHT22;22228;53.222;7.446;2023-05-07T12:05:16;23.00;99.90
36186;DHT22;22228;53.222;7.446;2023-05-07T12:07:37;23.30;99.90
36186;DHT22;22228;53.222;7.446;2023-05-07T12:09:59;22.90;99.90
36186;DHT22;22228;53.222;7.446;2023-05-07T12:15:35;23.70;99.90
36186;DHT22;22228;53.222;7.446;2023-05-07T12:18:01;23.60;99.90
36186;DHT22;22228;53.222;7.446;2023-05-07T12:20:29;22.80;99.90
36186;DHT22;22228;53.222;7.446;2023-05-07T12:23:15;22.10;99.90
36186;DHT22;22228;53.222;7.446;2023-05-07T12:25:38;22.60;99.90
36186;DHT22;22228;53.222;7.446;2023-05-07T12:28:07;22.90;99.90
36186;DHT22;22228;53.222;7.446;2023-05-07T12:30:31;22.40;99.90
36186;DHT22;22228;53.222;7.446;2023-05-07T12:33:19;22.70;99.90
36186;DHT22;22228;53.222;7.446;2023-05-07T12:35:44;23.60;99.90
36186;DHT22;22228;53.222;7.446;2023-05-07T12:38:34;23.90;99.90
36186;DHT22;22228;53.222;7.446;2023-05-07T12:40:57;24.10;99.90
36186;DHT22;22228;53.222;7.446;2023-05-07T12:43:18;23.40;99.90
36186;DHT22;22228;53.222;7.446;2023-05-07T12:45:41;23.50;99.90
36186;DHT22;22228;53.222;7.446;2023-05-07T12:48:27;23.80;99.90
36186;DHT22;22228;53.222;7.446;2023-05-07T12:51:13;23.70;99.90
36186;DHT22;22228;53.222;7.446;2023-05-07T12:54:00;24.00;99.90
36186;DHT22;22228;53.222;7.446;2023-05-07T12:56:25;24.40;99.90
36186;DHT22;22228;53.222;7.446;2023-05-07T12:58:48;24.80;99.90
36186;DHT22;22228;53.222;7.446;2023-05-07T13:01:09;25.00;99.90
36186;DHT22;22228;53.222;7.446;2023-05-07T13:03:55;24.50;99.90
36186;DHT22;22228;53.222;7.446;2023-05-07T13:06:15;24.80;99.90
36186;DHT22;22228;53.222;7.446;2023-05-07T13:11:49;24.60;99.90
36186;DHT22;22228;53.222;7.446;2023-05-07T13:14:10;24.90;99.90
36186;DHT22;22228;53.222;7.446;2023-05-07T13:16:55;24.80;99.90
36186;DHT22;22228;53.222;7.446;2023-05-07T13:19:39;24.50;99.90
36186;DHT22;22228;53.222;7.446;2023-05-07T13:22:04;24.70;99.90
36186;DHT22;22228;53.222;7.446;2023-05-07T13:24:49;25.20;99.90
36186;DHT22;22228;53.222;7.446;2023-05-07T13:27:15;25.70;99.90
36186;DHT22;22228;53.222;7.446;2023-05-07T13:29:36;26.40;99.90
36186;DHT22;22228;53.222;7.446;2023-05-07T13:31:56;26.10;99.90
36186;DHT22;22228;53.222;7.446;2023-05-07T13:34:24;26.30;99.90
36186;DHT22;22228;53.222;7.446;2023-05-07T13:37:10;26.80;99.90
36186;DHT22;22228;53.222;7.446;2023-05-07T13:40:03;27.00;99.90
36186;DHT22;22228;53.222;7.446;2023-05-07T13:42:56;26.50;99.90
36186;DHT22;22228;53.222;7.446;2023-05-07T13:45:24;26.70;99.90
36186;DHT22;22228;53.222;7.446;2023-05-07T13:48:08;26.70;99.90
36186;DHT22;22228;53.222;7.446;2023-05-07T13:50:30;26.90;99.90
36186;DHT22;22228;53.222;7.446;2023-05-07T13:52:52;26.70;99.90
36186;DHT22;22228;53.222;7.446;2023-05-07T13:55:13;27.40;99.90
36186;DHT22;22228;53.222;7.446;2023-05-07T13:57:35;28.30;99.90
36186;DHT22;22228;53.222;7.446;2023-05-07T13:59:59;28.40;99.90
36186;DHT22;22228;53.222;7.446;2023-05-07T14:02:24;28.30;99.90
36186;DHT22;22228;53.222;7.446;2023-05-07T14:04:46;28.00;99.90
36186;DHT22;22228;53.222;7.446;2023-05-07T14:07:08;27.30;99.90
36186;DHT22;22228;53.222;7.446;2023-05-07T14:09:28;27.20;99.90
36186;DHT22;22228;53.222;7.446;2023-05-07T14:11:50;27.10;99.90
36186;DHT22;22228;53.222;7.446;2023-05-07T14:14:38;26.90;99.90
36186;DHT22;22228;53.222;7.446;2023-05-07T14:17:00;26.90;99.90
36186;DHT22;22228;53.222;7.446;2023-05-07T14:19:21;27.00;99.90
36186;DHT22;22228;53.222;7.446;2023-05-07T14:21:43;26.60;99.90
36186;DHT22;22228;53.222;7.446;2023-05-07T14:24:06;26.40;99.90
36186;DHT22;22228;53.222;7.446;2023-05-07T14:26:53;26.10;99.90
36186;DHT22;22228;53.222;7.446;2023-05-07T14:29:13;25.90;99.90
36186;DHT22;22228;53.222;7.446;2023-05-07T14:31:35;25.80;99.90
36186;DHT22;22228;53.222;7.446;2023-05-07T14:34:01;25.20;99.90
36186;DHT22;22228;53.222;7.446;2023-05-07T14:36:29;25.50;99.90
36186;DHT22;22228;53.222;7.446;2023-05-07T14:38:51;25.70;99.90
36186;DHT22;22228;53.222;7.446;2023-05-07T14:41:39;26.00;99.90
36186;DHT22;22228;53.222;7.446;2023-05-07T14:44:00;26.20;99.90
36186;DHT22;22228;53.222;7.446;2023-05-07T14:46:23;26.40;99.90
36186;DHT22;22228;53.222;7.446;2023-05-07T14:49:15;27.00;99.90
36186;DHT22;22228;53.222;7.446;2023-05-07T14:51:37;27.00;99.90
36186;DHT22;22228;53.222;7.446;2023-05-07T14:53:57;27.20;99.90
36186;DHT22;22228;53.222;7.446;2023-05-07T14:56:45;27.40;99.90
36186;DHT22;22228;53.222;7.446;2023-05-07T14:59:06;28.10;99.90
36186;DHT22;22228;53.222;7.446;2023-05-07T15:01:27;28.10;99.90
36186;DHT22;22228;53.222;7.446;2023-05-07T15:04:14;28.20;99.90
36186;DHT22;22228;53.222;7.446;2023-05-07T15:07:01;27.90;99.90
36186;DHT22;22228;53.222;7.446;2023-05-07T15:10:11;27.30;99.90
36186;DHT22;22228;53.222;7.446;2023-05-07T15:12:35;27.10;99.90
36186;DHT22;22228;53.222;7.446;2023-05-07T15:14:56;27.60;99.90
36186;DHT22;22228;53.222;7.446;2023-05-07T15:17:19;27.70;99.90
36186;DHT22;22228;53.222;7.446;2023-05-07T15:19:41;27.80;99.90
36186;DHT22;22228;53.222;7.446;2023-05-07T15:22:02;28.60;99.90
36186;DHT22;22228;53.222;7.446;2023-05-07T15:24:22;27.80;99.90
36186;DHT22;22228;53.222;7.446;2023-05-07T15:26:45;27.60;99.90
36186;DHT22;22228;53.222;7.446;2023-05-07T15:29:12;27.30;99.90
36186;DHT22;22228;53.222;7.446;2023-05-07T15:31:34;26.90;99.90
36186;DHT22;22228;53.222;7.446;2023-05-07T15:33:56;26.10;99.90
36186;DHT22;22228;53.222;7.446;2023-05-07T15:36:19;25.40;99.90
36186;DHT22;22228;53.222;7.446;2023-05-07T15:39:10;25.40;99.90
36186;DHT22;22228;53.222;7.446;2023-05-07T15:41:32;25.10;99.90
36186;DHT22;22228;53.222;7.446;2023-05-07T15:47:32;24.30;99.90
36186;DHT22;22228;53.222;7.446;2023-05-07T15:49:56;23.30;99.90
36186;DHT22;22228;53.222;7.446;2023-05-07T15:52:46;22.60;99.90
36186;DHT22;22228;53.222;7.446;2023-05-07T15:55:10;22.10;99.90
36186;DHT22;22228;53.222;7.446;2023-05-07T15:57:32;21.70;99.90
36186;DHT22;22228;53.222;7.446;2023-05-07T16:00:20;21.20;1.00
36186;DHT22;22228;53.222;7.446;2023-05-07T16:05:53;20.50;99.90
36186;DHT22;22228;53.222;7.446;2023-05-07T16:08:25;20.30;99.90
36186;DHT22;22228;53.222;7.446;2023-05-07T16:10:46;20.10;99.90
36186;DHT22;22228;53.222;7.446;2023-05-07T16:16:26;19.70;99.90
36186;DHT22;22228;53.222;7.446;2023-05-07T16:18:48;19.60;99.90
36186;DHT22;22228;53.222;7.446;2023-05-07T16:21:11;19.60;99.90
36186;DHT22;22228;53.222;7.446;2023-05-07T16:23:35;19.50;49.90
36186;DHT22;22228;53.222;7.446;2023-05-07T16:25:56;19.50;1.00
36186;DHT22;22228;53.222;7.446;2023-05-07T16:28:18;19.40;1.00
36186;DHT22;22228;53.222;7.446;2023-05-07T16:30:46;19.30;1.00
36186;DHT22;22228;53.222;7.446;2023-05-07T16:33:07;19.30;1.00
36186;DHT22;22228;53.222;7.446;2023-05-07T16:35:52;19.30;99.90
36186;DHT22;22228;53.222;7.446;2023-05-07T16:38:17;19.20;1.00
36186;DHT22;22228;53.222;7.446;2023-05-07T16:40:45;19.10;99.90
36186;DHT22;22228;53.222;7.446;2023-05-07T16:43:14;19.00;26.50
36186;DHT22;22228;53.222;7.446;2023-05-07T16:45:36;19.20;1.00
36186;DHT22;22228;53.222;7.446;2023-05-07T16:48:01;19.30;1.00
36186;DHT22;22228;53.222;7.446;2023-05-07T16:50:53;19.30;1.00
36186;DHT22;22228;53.222;7.446;2023-05-07T16:53:19;19.30;1.00
36186;DHT22;22228;53.222;7.446;2023-05-07T16:55:41;19.40;1.00
36186;DHT22;22228;53.222;7.446;2023-05-07T16:58:03;19.40;1.00
36186;DHT22;22228;53.222;7.446;2023-05-07T17:00:49;19.40;1.00
36186;DHT22;22228;53.222;7.446;2023-05-07T17:03:09;19.30;1.00
36186;DHT22;22228;53.222;7.446;2023-05-07T17:05:30;19.30;1.00
36186;DHT22;22228;53.222;7.446;2023-05-07T17:07:52;19.20;1.00
36186;DHT22;22228;53.222;7.446;2023-05-07T17:10:14;19.00;1.00
36186;DHT22;22228;53.222;7.446;2023-05-07T17:12:35;19.00;1.00
36186;DHT22;22228;53.222;7.446;2023-05-07T17:15:24;18.90;1.00
36186;DHT22;22228;53.222;7.446;2023-05-07T17:17:45;18.70;1.00
36186;DHT22;22228;53.222;7.446;2023-05-07T17:20:07;18.60;1.00
36186;DHT22;22228;53.222;7.446;2023-05-07T17:22:30;18.50;1.00
36186;DHT22;22228;53.222;7.446;2023-05-07T17:24:52;18.70;1.00
36186;DHT22;22228;53.222;7.446;2023-05-07T17:27:17;18.80;1.00
36186;DHT22;22228;53.222;7.446;2023-05-07T17:29:46;18.90;1.00
36186;DHT22;22228;53.222;7.446;2023-05-07T17:32:08;18.90;1.00
36186;DHT22;22228;53.222;7.446;2023-05-07T17:34:29;18.90;1.00
36186;DHT22;22228;53.222;7.446;2023-05-07T17:36:51;19.00;1.00
36186;DHT22;22228;53.222;7.446;2023-05-07T17:39:19;19.00;1.00
36186;DHT22;22228;53.222;7.446;2023-05-07T17:41:40;19.30;1.00
36186;DHT22;22228;53.222;7.446;2023-05-07T17:44:02;19.20;1.00
36186;DHT22;22228;53.222;7.446;2023-05-07T17:46:30;19.00;1.00
36186;DHT22;22228;53.222;7.446;2023-05-07T17:48:52;18.80;1.00
36186;DHT22;22228;53.222;7.446;2023-05-07T17:51:13;18.60;1.00
36186;DHT22;22228;53.222;7.446;2023-05-07T17:53:33;18.60;1.00
36186;DHT22;22228;53.222;7.446;2023-05-07T17:55:58;18.40;1.00
36186;DHT22;22228;53.222;7.446;2023-05-07T17:58:19;18.40;1.00
36186;DHT22;22228;53.222;7.446;2023-05-07T18:00:41;18.00;1.00
36186;DHT22;22228;53.222;7.446;2023-05-07T18:03:06;17.90;1.00
36186;DHT22;22228;53.222;7.446;2023-05-07T18:05:28;17.70;1.00
36186;DHT22;22228;53.222;7.446;2023-05-07T18:08:15;17.50;1.00
36186;DHT22;22228;53.222;7.446;2023-05-07T18:10:36;17.40;1.00
36186;DHT22;22228;53.222;7.446;2023-05-07T18:13:04;17.20;1.00
36186;DHT22;22228;53.222;7.446;2023-05-07T18:15:24;17.00;1.00
36186;DHT22;22228;53.222;7.446;2023-05-07T18:17:45;17.10;1.00
36186;DHT22;22228;53.222;7.446;2023-05-07T18:20:08;17.10;1.00
36186;DHT22;22228;53.222;7.446;2023-05-07T18:22:30;17.00;1.00
36186;DHT22;22228;53.222;7.446;2023-05-07T18:24:53;16.80;1.00
36186;DHT22;22228;53.222;7.446;2023-05-07T18:27:16;16.60;1.00
36186;DHT22;22228;53.222;7.446;2023-05-07T18:29:38;16.40;1.00
36186;DHT22;22228;53.222;7.446;2023-05-07T18:32:00;16.40;1.00
36186;DHT22;22228;53.222;7.446;2023-05-07T18:37:34;16.10;1.00
36186;DHT22;22228;53.222;7.446;2023-05-07T18:39:54;15.90;1.00
36186;DHT22;22228;53.222;7.446;2023-05-07T18:42:15;15.80;1.00
36186;DHT22;22228;53.222;7.446;2023-05-07T18:44:37;15.70;1.00
36186;DHT22;22228;53.222;7.446;2023-05-07T18:46:58;15.60;1.00
36186;DHT22;22228;53.222;7.446;2023-05-07T18:49:44;15.50;7.70
36186;DHT22;22228;53.222;7.446;2023-05-07T18:52:05;15.40;9.30
36186;DHT22;22228;53.222;7.446;2023-05-07T18:54:31;15.30;7.20
36186;DHT22;22228;53.222;7.446;2023-05-07T18:56:52;15.20;4.30
36186;DHT22;22228;53.222;7.446;2023-05-07T18:59:20;15.00;1.00
36186;DHT22;22228;53.222;7.446;2023-05-07T19:01:41;14.90;8.00
36186;DHT22;22228;53.222;7.446;2023-05-07T19:04:02;14.70;11.30